sensor_id;sensor_type;location;lat;lon;timestamp;P1;durP1;ratioP1;P2;durP2;ratioP2
61764;SDS011;50188;48.114;-1.388;2022-09-24T00:00:46;18.98;;;16.88;;
61764;SDS011;50188;48.114;-1.388;2022-09-24T00:03:16;18.45;;;16.75;;
61764;SDS011;50188;48.114;-1.388;2022-09-24T00:05:44;19.65;;;17.83;;
61764;SDS011;50188;48.114;-1.388;2022-09-24T00:08:10;18.75;;;17.33;;
61764;SDS011;50188;48.114;-1.388;2022-09-24T00:10:38;17.73;;;16.13;;
61764;SDS011;50188;48.114;-1.388;2022-09-24T00:13:05;18.10;;;16.52;;
61764;SDS011;50188;48.114;-1.388;2022-09-24T00:15:36;14.55;;;13.40;;
61764;SDS011;50188;48.114;-1.388;2022-09-24T00:18:02;16.63;;;15.32;;
61764;SDS011;50188;48.114;-1.388;2022-09-24T00:20:30;18.17;;;16.77;;
61764;SDS011;50188;48.114;-1.388;2022-09-24T00:22:57;18.40;;;16.90;;
61764;SDS011;50188;48.114;-1.388;2022-09-24T00:25:23;18.15;;;16.65;;
61764;SDS011;50188;48.114;-1.388;2022-09-24T00:28:09;17.33;;;15.90;;
61764;SDS011;50188;48.114;-1.388;2022-09-24T00:30:40;16.75;;;15.45;;
61764;SDS011;50188;48.114;-1.388;2022-09-24T00:33:06;19.75;;;17.83;;
61764;SDS011;50188;48.114;-1.388;2022-09-24T00:35:33;18.70;;;17.15;;
61764;SDS011;50188;48.114;-1.388;2022-09-24T00:38:00;19.00;;;17.40;;
61764;SDS011;50188;48.114;-1.388;2022-09-24T00:40:27;20.30;;;18.25;;
61764;SDS011;50188;48.114;-1.388;2022-09-24T00:42:53;17.80;;;16.30;;
61764;SDS011;50188;48.114;-1.388;2022-09-24T00:45:19;20.08;;;17.25;;
61764;SDS011;50188;48.114;-1.388;2022-09-24T00:47:45;17.45;;;15.80;;
61764;SDS011;50188;48.114;-1.388;2022-09-24T00:50:15;19.00;;;17.38;;
61764;SDS011;50188;48.114;-1.388;2022-09-24T00:52:58;16.38;;;14.85;;
61764;SDS011;50188;48.114;-1.388;2022-09-24T00:55:29;17.45;;;15.85;;
61764;SDS011;50188;48.114;-1.388;2022-09-24T00:57:58;17.70;;;16.20;;
61764;SDS011;50188;48.114;-1.388;2022-09-24T01:00:27;16.48;;;15.02;;
61764;SDS011;50188;48.114;-1.388;2022-09-24T01:02:56;15.05;;;13.88;;
61764;SDS011;50188;48.114;-1.388;2022-09-24T01:05:25;16.27;;;15.00;;
61764;SDS011;50188;48.114;-1.388;2022-09-24T01:07:51;18.80;;;16.85;;
61764;SDS011;50188;48.114;-1.388;2022-09-24T01:10:16;18.83;;;17.17;;
61764;SDS011;50188;48.114;-1.388;2022-09-24T01:16:17;19.08;;;17.13;;
61764;SDS011;50188;48.114;-1.388;2022-09-24T01:18:54;17.33;;;15.75;;
61764;SDS011;50188;48.114;-1.388;2022-09-24T01:21:48;18.33;;;16.55;;
61764;SDS011;50188;48.114;-1.388;2022-09-24T01:27:32;14.25;;;12.95;;
61764;SDS011;50188;48.114;-1.388;2022-09-24T01:30:16;14.18;;;12.88;;
61764;SDS011;50188;48.114;-1.388;2022-09-24T01:32:53;12.52;;;11.38;;
61764;SDS011;50188;48.114;-1.388;2022-09-24T01:35:25;12.95;;;11.68;;
61764;SDS011;50188;48.114;-1.388;2022-09-24T01:38:13;12.30;;;11.15;;
61764;SDS011;50188;48.114;-1.388;2022-09-24T01:40:45;11.75;;;10.63;;
61764;SDS011;50188;48.114;-1.388;2022-09-24T01:43:13;10.30;;;9.45;;
61764;SDS011;50188;48.114;-1.388;2022-09-24T01:45:41;11.23;;;10.13;;
61764;SDS011;50188;48.114;-1.388;2022-09-24T01:48:07;11.65;;;10.52;;
61764;SDS011;50188;48.114;-1.388;2022-09-24T01:50:36;10.93;;;10.02;;
61764;SDS011;50188;48.114;-1.388;2022-09-24T01:53:11;11.68;;;10.35;;
61764;SDS011;50188;48.114;-1.388;2022-09-24T01:55:43;9.77;;;8.88;;
61764;SDS011;50188;48.114;-1.388;2022-09-24T01:58:16;10.48;;;9.38;;
61764;SDS011;50188;48.114;-1.388;2022-09-24T02:00:48;9.75;;;8.25;;
61764;SDS011;50188;48.114;-1.388;2022-09-24T02:03:28;9.40;;;8.55;;
61764;SDS011;50188;48.114;-1.388;2022-09-24T02:06:02;9.82;;;9.05;;
61764;SDS011;50188;48.114;-1.388;2022-09-24T02:08:38;10.07;;;9.18;;
61764;SDS011;50188;48.114;-1.388;2022-09-24T02:11:06;9.32;;;7.88;;
61764;SDS011;50188;48.114;-1.388;2022-09-24T02:13:37;10.20;;;8.20;;
61764;SDS011;50188;48.114;-1.388;2022-09-24T02:16:09;8.85;;;8.15;;
61764;SDS011;50188;48.114;-1.388;2022-09-24T02:18:40;8.50;;;7.80;;
61764;SDS011;50188;48.114;-1.388;2022-09-24T02:21:10;10.50;;;9.35;;
61764;SDS011;50188;48.114;-1.388;2022-09-24T02:23:39;9.13;;;8.30;;
61764;SDS011;50188;48.114;-1.388;2022-09-24T02:26:09;9.50;;;8.50;;
61764;SDS011;50188;48.114;-1.388;2022-09-24T02:28:35;9.25;;;8.23;;
61764;SDS011;50188;48.114;-1.388;2022-09-24T02:31:02;8.57;;;7.78;;
61764;SDS011;50188;48.114;-1.388;2022-09-24T02:33:32;7.72;;;7.13;;
61764;SDS011;50188;48.114;-1.388;2022-09-24T02:36:22;8.70;;;8.00;;
61764;SDS011;50188;48.114;-1.388;2022-09-24T02:38:49;9.25;;;8.45;;
61764;SDS011;50188;48.114;-1.388;2022-09-24T02:41:15;8.38;;;7.57;;
61764;SDS011;50188;48.114;-1.388;2022-09-24T02:43:43;9.20;;;8.40;;
61764;SDS011;50188;48.114;-1.388;2022-09-24T02:46:09;10.95;;;7.97;;
61764;SDS011;50188;48.114;-1.388;2022-09-24T02:48:35;9.35;;;7.70;;
61764;SDS011;50188;48.114;-1.388;2022-09-24T02:51:01;9.77;;;8.88;;
61764;SDS011;50188;48.114;-1.388;2022-09-24T02:53:28;9.30;;;8.38;;
61764;SDS011;50188;48.114;-1.388;2022-09-24T02:55:54;9.60;;;8.68;;
61764;SDS011;50188;48.114;-1.388;2022-09-24T02:58:20;9.88;;;8.05;;
61764;SDS011;50188;48.114;-1.388;2022-09-24T03:00:45;9.10;;;8.18;;
61764;SDS011;50188;48.114;-1.388;2022-09-24T03:03:11;8.75;;;7.82;;
61764;SDS011;50188;48.114;-1.388;2022-09-24T03:05:37;9.02;;;8.23;;
61764;SDS011;50188;48.114;-1.388;2022-09-24T03:08:02;8.50;;;7.82;;
61764;SDS011;50188;48.114;-1.388;2022-09-24T03:10:28;9.23;;;8.60;;
61764;SDS011;50188;48.114;-1.388;2022-09-24T03:12:55;9.10;;;8.30;;
61764;SDS011;50188;48.114;-1.388;2022-09-24T03:15:20;9.68;;;8.57;;
61764;SDS011;50188;48.114;-1.388;2022-09-24T03:17:46;7.82;;;7.13;;
61764;SDS011;50188;48.114;-1.388;2022-09-24T03:20:12;10.05;;;9.05;;
61764;SDS011;50188;48.114;-1.388;2022-09-24T03:22:38;8.95;;;8.10;;
61764;SDS011;50188;48.114;-1.388;2022-09-24T03:25:03;9.35;;;8.65;;
61764;SDS011;50188;48.114;-1.388;2022-09-24T03:27:32;8.57;;;7.97;;
61764;SDS011;50188;48.114;-1.388;2022-09-24T03:29:58;8.10;;;7.30;;
61764;SDS011;50188;48.114;-1.388;2022-09-24T03:32:43;10.52;;;9.45;;
61764;SDS011;50188;48.114;-1.388;2022-09-24T03:35:11;8.88;;;8.20;;
61764;SDS011;50188;48.114;-1.388;2022-09-24T03:37:36;8.77;;;7.97;;
61764;SDS011;50188;48.114;-1.388;2022-09-24T03:40:03;10.77;;;9.68;;
61764;SDS011;50188;48.114;-1.388;2022-09-24T03:42:30;9.50;;;8.75;;
61764;SDS011;50188;48.114;-1.388;2022-09-24T03:44:57;9.00;;;8.30;;
61764;SDS011;50188;48.114;-1.388;2022-09-24T03:47:23;10.13;;;9.20;;
61764;SDS011;50188;48.114;-1.388;2022-09-24T03:49:53;8.75;;;8.05;;
61764;SDS011;50188;48.114;-1.388;2022-09-24T03:52:19;9.30;;;8.27;;
61764;SDS011;50188;48.114;-1.388;2022-09-24T03:54:44;10.63;;;9.50;;
61764;SDS011;50188;48.114;-1.388;2022-09-24T03:57:10;11.35;;;9.50;;
61764;SDS011;50188;48.114;-1.388;2022-09-24T03:59:38;11.70;;;9.65;;
61764;SDS011;50188;48.114;-1.388;2022-09-24T04:04:34;9.73;;;8.13;;
61764;SDS011;50188;48.114;-1.388;2022-09-24T04:06:59;14.85;;;8.55;;
61764;SDS011;50188;48.114;-1.388;2022-09-24T04:09:25;8.52;;;7.82;;
61764;SDS011;50188;48.114;-1.388;2022-09-24T04:11:51;9.52;;;8.60;;
61764;SDS011;50188;48.114;-1.388;2022-09-24T04:14:17;9.70;;;8.52;;
61764;SDS011;50188;48.114;-1.388;2022-09-24T04:16:43;8.90;;;8.10;;
61764;SDS011;50188;48.114;-1.388;2022-09-24T04:19:09;9.52;;;8.73;;
61764;SDS011;50188;48.114;-1.388;2022-09-24T04:21:36;9.93;;;9.02;;
61764;SDS011;50188;48.114;-1.388;2022-09-24T04:24:02;9.27;;;8.48;;
61764;SDS011;50188;48.114;-1.388;2022-09-24T04:26:28;8.48;;;7.68;;
61764;SDS011;50188;48.114;-1.388;2022-09-24T04:28:53;8.15;;;7.55;;
61764;SDS011;50188;48.114;-1.388;2022-09-24T04:31:19;8.90;;;8.18;;
61764;SDS011;50188;48.114;-1.388;2022-09-24T04:33:45;8.05;;;7.45;;
61764;SDS011;50188;48.114;-1.388;2022-09-24T04:36:11;10.48;;;7.07;;
61764;SDS011;50188;48.114;-1.388;2022-09-24T04:38:36;7.22;;;6.63;;
61764;SDS011;50188;48.114;-1.388;2022-09-24T04:41:05;8.20;;;7.38;;
61764;SDS011;50188;48.114;-1.388;2022-09-24T04:43:32;9.07;;;8.18;;
61764;SDS011;50188;48.114;-1.388;2022-09-24T04:45:58;10.18;;;8.27;;
61764;SDS011;50188;48.114;-1.388;2022-09-24T04:48:24;8.70;;;7.85;;
61764;SDS011;50188;48.114;-1.388;2022-09-24T04:50:50;8.02;;;7.35;;
61764;SDS011;50188;48.114;-1.388;2022-09-24T04:53:15;8.27;;;7.63;;
61764;SDS011;50188;48.114;-1.388;2022-09-24T04:55:41;8.80;;;7.38;;
61764;SDS011;50188;48.114;-1.388;2022-09-24T04:58:07;9.13;;;8.43;;
61764;SDS011;50188;48.114;-1.388;2022-09-24T05:00:36;8.63;;;7.60;;
61764;SDS011;50188;48.114;-1.388;2022-09-24T05:03:02;8.25;;;7.50;;
61764;SDS011;50188;48.114;-1.388;2022-09-24T05:05:28;10.00;;;8.93;;
61764;SDS011;50188;48.114;-1.388;2022-09-24T05:07:54;9.00;;;8.18;;
61764;SDS011;50188;48.114;-1.388;2022-09-24T05:10:23;10.68;;;8.55;;
61764;SDS011;50188;48.114;-1.388;2022-09-24T05:12:50;10.10;;;7.95;;
61764;SDS011;50188;48.114;-1.388;2022-09-24T05:15:20;10.02;;;9.05;;
61764;SDS011;50188;48.114;-1.388;2022-09-24T05:17:46;8.43;;;7.70;;
61764;SDS011;50188;48.114;-1.388;2022-09-24T05:20:12;9.85;;;8.95;;
61764;SDS011;50188;48.114;-1.388;2022-09-24T05:22:40;8.18;;;7.47;;
61764;SDS011;50188;48.114;-1.388;2022-09-24T05:25:06;9.50;;;8.57;;
61764;SDS011;50188;48.114;-1.388;2022-09-24T05:27:32;10.02;;;9.13;;
61764;SDS011;50188;48.114;-1.388;2022-09-24T05:29:58;9.05;;;8.10;;
61764;SDS011;50188;48.114;-1.388;2022-09-24T05:32:25;10.85;;;9.15;;
61764;SDS011;50188;48.114;-1.388;2022-09-24T05:34:53;12.10;;;10.25;;
61764;SDS011;50188;48.114;-1.388;2022-09-24T05:37:19;9.52;;;8.63;;
61764;SDS011;50188;48.114;-1.388;2022-09-24T05:39:45;9.23;;;8.43;;
61764;SDS011;50188;48.114;-1.388;2022-09-24T05:42:10;9.75;;;8.70;;
61764;SDS011;50188;48.114;-1.388;2022-09-24T05:44:39;9.43;;;8.63;;
61764;SDS011;50188;48.114;-1.388;2022-09-24T05:47:07;7.93;;;6.70;;
61764;SDS011;50188;48.114;-1.388;2022-09-24T05:49:33;12.10;;;6.65;;
61764;SDS011;50188;48.114;-1.388;2022-09-24T05:51:59;6.70;;;5.90;;
61764;SDS011;50188;48.114;-1.388;2022-09-24T05:54:25;7.28;;;6.68;;
61764;SDS011;50188;48.114;-1.388;2022-09-24T05:56:51;8.30;;;6.38;;
61764;SDS011;50188;48.114;-1.388;2022-09-24T05:59:17;6.85;;;6.15;;
61764;SDS011;50188;48.114;-1.388;2022-09-24T06:01:42;10.73;;;7.30;;
61764;SDS011;50188;48.114;-1.388;2022-09-24T06:04:09;7.50;;;6.80;;
61764;SDS011;50188;48.114;-1.388;2022-09-24T06:06:36;8.40;;;7.57;;
61764;SDS011;50188;48.114;-1.388;2022-09-24T06:09:02;8.98;;;6.85;;
61764;SDS011;50188;48.114;-1.388;2022-09-24T06:11:29;13.48;;;7.50;;
61764;SDS011;50188;48.114;-1.388;2022-09-24T06:13:58;9.00;;;6.90;;
61764;SDS011;50188;48.114;-1.388;2022-09-24T06:16:27;8.30;;;7.50;;
61764;SDS011;50188;48.114;-1.388;2022-09-24T06:18:52;9.45;;;7.60;;
61764;SDS011;50188;48.114;-1.388;2022-09-24T06:21:18;8.95;;;7.70;;
61764;SDS011;50188;48.114;-1.388;2022-09-24T06:23:44;11.30;;;8.00;;
61764;SDS011;50188;48.114;-1.388;2022-09-24T06:26:10;11.00;;;8.32;;
61764;SDS011;50188;48.114;-1.388;2022-09-24T06:28:37;8.55;;;7.63;;
61764;SDS011;50188;48.114;-1.388;2022-09-24T06:31:03;14.77;;;7.60;;
61764;SDS011;50188;48.114;-1.388;2022-09-24T06:33:30;8.02;;;7.32;;
61764;SDS011;50188;48.114;-1.388;2022-09-24T06:36:00;8.77;;;7.63;;
61764;SDS011;50188;48.114;-1.388;2022-09-24T06:38:27;8.35;;;7.47;;
61764;SDS011;50188;48.114;-1.388;2022-09-24T06:40:57;7.93;;;7.25;;
61764;SDS011;50188;48.114;-1.388;2022-09-24T06:43:28;8.35;;;7.55;;
61764;SDS011;50188;48.114;-1.388;2022-09-24T06:45:54;9.32;;;8.15;;
61764;SDS011;50188;48.114;-1.388;2022-09-24T06:48:21;8.60;;;7.00;;
61764;SDS011;50188;48.114;-1.388;2022-09-24T06:50:47;10.35;;;7.82;;
61764;SDS011;50188;48.114;-1.388;2022-09-24T06:53:13;8.30;;;7.50;;
61764;SDS011;50188;48.114;-1.388;2022-09-24T06:55:39;8.63;;;7.80;;
61764;SDS011;50188;48.114;-1.388;2022-09-24T06:58:07;8.13;;;6.38;;
61764;SDS011;50188;48.114;-1.388;2022-09-24T07:00:35;7.68;;;6.95;;
61764;SDS011;50188;48.114;-1.388;2022-09-24T07:03:02;8.07;;;7.32;;
61764;SDS011;50188;48.114;-1.388;2022-09-24T07:05:29;10.60;;;7.45;;
61764;SDS011;50188;48.114;-1.388;2022-09-24T07:07:54;22.92;;;8.75;;
61764;SDS011;50188;48.114;-1.388;2022-09-24T07:10:20;7.15;;;6.55;;
61764;SDS011;50188;48.114;-1.388;2022-09-24T07:12:48;8.32;;;7.38;;
61764;SDS011;50188;48.114;-1.388;2022-09-24T07:15:13;8.73;;;7.38;;
61764;SDS011;50188;48.114;-1.388;2022-09-24T07:17:39;8.50;;;7.78;;
61764;SDS011;50188;48.114;-1.388;2022-09-24T07:20:05;7.30;;;6.68;;
61764;SDS011;50188;48.114;-1.388;2022-09-24T07:22:31;9.23;;;8.43;;
61764;SDS011;50188;48.114;-1.388;2022-09-24T07:24:56;7.13;;;6.57;;
61764;SDS011;50188;48.114;-1.388;2022-09-24T07:27:22;7.75;;;7.05;;
61764;SDS011;50188;48.114;-1.388;2022-09-24T07:29:48;9.98;;;8.10;;
61764;SDS011;50188;48.114;-1.388;2022-09-24T07:32:14;6.80;;;6.22;;
61764;SDS011;50188;48.114;-1.388;2022-09-24T07:34:44;9.07;;;7.30;;
61764;SDS011;50188;48.114;-1.388;2022-09-24T07:37:10;8.05;;;7.28;;
61764;SDS011;50188;48.114;-1.388;2022-09-24T07:39:36;8.25;;;7.43;;
61764;SDS011;50188;48.114;-1.388;2022-09-24T07:42:03;9.27;;;7.78;;
61764;SDS011;50188;48.114;-1.388;2022-09-24T07:44:29;7.95;;;7.35;;
61764;SDS011;50188;48.114;-1.388;2022-09-24T07:46:55;7.82;;;7.05;;
61764;SDS011;50188;48.114;-1.388;2022-09-24T07:49:21;8.32;;;7.70;;
61764;SDS011;50188;48.114;-1.388;2022-09-24T07:51:47;9.27;;;6.75;;
61764;SDS011;50188;48.114;-1.388;2022-09-24T07:54:13;10.43;;;6.72;;
61764;SDS011;50188;48.114;-1.388;2022-09-24T07:56:39;8.13;;;7.38;;
61764;SDS011;50188;48.114;-1.388;2022-09-24T07:59:05;9.38;;;7.85;;
61764;SDS011;50188;48.114;-1.388;2022-09-24T08:01:31;6.68;;;6.18;;
61764;SDS011;50188;48.114;-1.388;2022-09-24T08:03:58;9.07;;;7.13;;
61764;SDS011;50188;48.114;-1.388;2022-09-24T08:06:24;7.75;;;6.93;;
61764;SDS011;50188;48.114;-1.388;2022-09-24T08:08:50;9.27;;;6.93;;
61764;SDS011;50188;48.114;-1.388;2022-09-24T08:11:21;7.65;;;6.90;;
61764;SDS011;50188;48.114;-1.388;2022-09-24T08:13:46;7.32;;;6.00;;
61764;SDS011;50188;48.114;-1.388;2022-09-24T08:16:13;5.97;;;5.45;;
61764;SDS011;50188;48.114;-1.388;2022-09-24T08:18:41;8.10;;;6.20;;
61764;SDS011;50188;48.114;-1.388;2022-09-24T08:21:08;8.35;;;6.55;;
61764;SDS011;50188;48.114;-1.388;2022-09-24T08:23:36;6.95;;;5.90;;
61764;SDS011;50188;48.114;-1.388;2022-09-24T08:26:02;5.80;;;5.40;;
61764;SDS011;50188;48.114;-1.388;2022-09-24T08:28:28;8.45;;;5.55;;
61764;SDS011;50188;48.114;-1.388;2022-09-24T08:30:58;7.32;;;5.90;;
61764;SDS011;50188;48.114;-1.388;2022-09-24T08:33:25;7.15;;;6.47;;
61764;SDS011;50188;48.114;-1.388;2022-09-24T08:35:52;9.02;;;4.90;;
61764;SDS011;50188;48.114;-1.388;2022-09-24T08:38:17;5.82;;;5.30;;
61764;SDS011;50188;48.114;-1.388;2022-09-24T08:41:03;8.15;;;5.75;;
61764;SDS011;50188;48.114;-1.388;2022-09-24T08:43:54;5.82;;;5.22;;
61764;SDS011;50188;48.114;-1.388;2022-09-24T08:46:43;22.90;;;6.45;;
61764;SDS011;50188;48.114;-1.388;2022-09-24T08:49:44;6.53;;;5.78;;
61764;SDS011;50188;48.114;-1.388;2022-09-24T08:55:06;5.70;;;5.20;;
61764;SDS011;50188;48.114;-1.388;2022-09-24T08:57:42;4.85;;;4.00;;
61764;SDS011;50188;48.114;-1.388;2022-09-24T09:00:14;5.85;;;4.10;;
61764;SDS011;50188;48.114;-1.388;2022-09-24T09:02:42;4.53;;;4.13;;
61764;SDS011;50188;48.114;-1.388;2022-09-24T09:05:51;8.10;;;3.88;;
61764;SDS011;50188;48.114;-1.388;2022-09-24T09:08:26;9.50;;;4.05;;
61764;SDS011;50188;48.114;-1.388;2022-09-24T09:11:08;8.05;;;4.13;;
61764;SDS011;50188;48.114;-1.388;2022-09-24T09:13:54;7.38;;;4.13;;
61764;SDS011;50188;48.114;-1.388;2022-09-24T09:16:41;5.25;;;4.45;;
61764;SDS011;50188;48.114;-1.388;2022-09-24T09:19:28;9.70;;;5.35;;
61764;SDS011;50188;48.114;-1.388;2022-09-24T09:22:11;9.30;;;4.55;;
61764;SDS011;50188;48.114;-1.388;2022-09-24T09:24:47;8.02;;;5.72;;
61764;SDS011;50188;48.114;-1.388;2022-09-24T09:27:14;8.43;;;4.75;;
61764;SDS011;50188;48.114;-1.388;2022-09-24T09:29:42;6.32;;;3.53;;
61764;SDS011;50188;48.114;-1.388;2022-09-24T09:32:15;6.68;;;3.08;;
61764;SDS011;50188;48.114;-1.388;2022-09-24T09:34:58;9.13;;;3.70;;
61764;SDS011;50188;48.114;-1.388;2022-09-24T09:37:41;8.90;;;3.75;;
61764;SDS011;50188;48.114;-1.388;2022-09-24T09:40:24;6.28;;;3.97;;
61764;SDS011;50188;48.114;-1.388;2022-09-24T09:43:09;8.10;;;2.63;;
61764;SDS011;50188;48.114;-1.388;2022-09-24T09:45:41;7.07;;;3.47;;
61764;SDS011;50188;48.114;-1.388;2022-09-24T09:48:28;7.32;;;2.60;;
61764;SDS011;50188;48.114;-1.388;2022-09-24T09:51:03;6.03;;;2.88;;
61764;SDS011;50188;48.114;-1.388;2022-09-24T09:53:30;9.23;;;3.25;;
61764;SDS011;50188;48.114;-1.388;2022-09-24T09:55:57;5.30;;;2.10;;
61764;SDS011;50188;48.114;-1.388;2022-09-24T09:58:25;4.82;;;2.53;;
61764;SDS011;50188;48.114;-1.388;2022-09-24T10:01:01;7.45;;;3.42;;
61764;SDS011;50188;48.114;-1.388;2022-09-24T10:03:47;8.27;;;2.50;;
61764;SDS011;50188;48.114;-1.388;2022-09-24T10:06:21;6.80;;;2.47;;
61764;SDS011;50188;48.114;-1.388;2022-09-24T10:08:49;12.98;;;2.47;;
61764;SDS011;50188;48.114;-1.388;2022-09-24T10:11:15;6.32;;;2.55;;
61764;SDS011;50188;48.114;-1.388;2022-09-24T10:13:42;8.73;;;3.65;;
61764;SDS011;50188;48.114;-1.388;2022-09-24T10:16:09;2.05;;;1.50;;
61764;SDS011;50188;48.114;-1.388;2022-09-24T10:18:41;16.13;;;2.08;;
61764;SDS011;50188;48.114;-1.388;2022-09-24T10:21:11;2.70;;;1.30;;
61764;SDS011;50188;48.114;-1.388;2022-09-24T10:23:41;8.80;;;2.60;;
61764;SDS011;50188;48.114;-1.388;2022-09-24T10:26:08;5.82;;;2.20;;
61764;SDS011;50188;48.114;-1.388;2022-09-24T10:28:38;8.05;;;2.33;;
61764;SDS011;50188;48.114;-1.388;2022-09-24T10:31:29;3.00;;;2.42;;
61764;SDS011;50188;48.114;-1.388;2022-09-24T10:33:56;3.60;;;2.22;;
61764;SDS011;50188;48.114;-1.388;2022-09-24T10:36:26;4.95;;;1.80;;
61764;SDS011;50188;48.114;-1.388;2022-09-24T10:39:13;5.70;;;2.53;;
61764;SDS011;50188;48.114;-1.388;2022-09-24T10:41:46;7.03;;;2.88;;
61764;SDS011;50188;48.114;-1.388;2022-09-24T10:44:13;5.70;;;2.45;;
61764;SDS011;50188;48.114;-1.388;2022-09-24T10:46:44;5.72;;;2.78;;
61764;SDS011;50188;48.114;-1.388;2022-09-24T10:49:29;6.78;;;2.35;;
61764;SDS011;50188;48.114;-1.388;2022-09-24T10:55:23;3.05;;;1.90;;
61764;SDS011;50188;48.114;-1.388;2022-09-24T10:58:31;5.60;;;2.08;;
61764;SDS011;50188;48.114;-1.388;2022-09-24T11:01:25;4.03;;;1.85;;
61764;SDS011;50188;48.114;-1.388;2022-09-24T11:04:09;2.40;;;1.33;;
61764;SDS011;50188;48.114;-1.388;2022-09-24T11:09:45;4.45;;;1.85;;
61764;SDS011;50188;48.114;-1.388;2022-09-24T11:15:24;5.05;;;1.23;;
61764;SDS011;50188;48.114;-1.388;2022-09-24T11:18:20;7.95;;;2.65;;
61764;SDS011;50188;48.114;-1.388;2022-09-24T11:21:08;7.82;;;1.73;;
61764;SDS011;50188;48.114;-1.388;2022-09-24T11:24:09;6.07;;;1.70;;
61764;SDS011;50188;48.114;-1.388;2022-09-24T11:30:09;2.30;;;1.40;;
61764;SDS011;50188;48.114;-1.388;2022-09-24T11:32:47;2.22;;;1.10;;
61764;SDS011;50188;48.114;-1.388;2022-09-24T11:35:43;6.88;;;2.58;;
61764;SDS011;50188;48.114;-1.388;2022-09-24T11:38:44;6.30;;;1.55;;
61764;SDS011;50188;48.114;-1.388;2022-09-24T11:41:35;4.90;;;1.40;;
61764;SDS011;50188;48.114;-1.388;2022-09-24T11:44:42;6.78;;;2.45;;
61764;SDS011;50188;48.114;-1.388;2022-09-24T11:47:28;4.85;;;1.83;;
61764;SDS011;50188;48.114;-1.388;2022-09-24T11:50:19;6.78;;;1.67;;
61764;SDS011;50188;48.114;-1.388;2022-09-24T11:53:03;5.28;;;1.40;;
61764;SDS011;50188;48.114;-1.388;2022-09-24T11:55:38;3.95;;;1.77;;
61764;SDS011;50188;48.114;-1.388;2022-09-24T11:58:30;5.63;;;2.15;;
61764;SDS011;50188;48.114;-1.388;2022-09-24T12:01:08;3.03;;;1.48;;
61764;SDS011;50188;48.114;-1.388;2022-09-24T12:03:51;3.67;;;1.08;;
61764;SDS011;50188;48.114;-1.388;2022-09-24T12:06:34;2.72;;;1.60;;
61764;SDS011;50188;48.114;-1.388;2022-09-24T12:09:14;3.47;;;1.58;;
61764;SDS011;50188;48.114;-1.388;2022-09-24T12:11:52;4.65;;;1.73;;
61764;SDS011;50188;48.114;-1.388;2022-09-24T12:14:30;10.00;;;1.55;;
61764;SDS011;50188;48.114;-1.388;2022-09-24T12:17:13;3.08;;;1.00;;
61764;SDS011;50188;48.114;-1.388;2022-09-24T12:19:52;4.05;;;1.40;;
61764;SDS011;50188;48.114;-1.388;2022-09-24T12:22:23;2.50;;;1.40;;
61764;SDS011;50188;48.114;-1.388;2022-09-24T12:24:52;5.93;;;1.85;;
61764;SDS011;50188;48.114;-1.388;2022-09-24T12:27:21;4.25;;;1.88;;
61764;SDS011;50188;48.114;-1.388;2022-09-24T12:30:03;5.47;;;1.75;;
61764;SDS011;50188;48.114;-1.388;2022-09-24T12:33:11;3.33;;;1.50;;
61764;SDS011;50188;48.114;-1.388;2022-09-24T12:36:01;2.10;;;1.38;;
61764;SDS011;50188;48.114;-1.388;2022-09-24T12:38:56;4.07;;;1.75;;
61764;SDS011;50188;48.114;-1.388;2022-09-24T12:41:31;3.70;;;1.27;;
61764;SDS011;50188;48.114;-1.388;2022-09-24T12:46:52;4.38;;;1.95;;
61764;SDS011;50188;48.114;-1.388;2022-09-24T12:49:29;4.40;;;1.70;;
61764;SDS011;50188;48.114;-1.388;2022-09-24T12:51:59;1.42;;;1.17;;
61764;SDS011;50188;48.114;-1.388;2022-09-24T12:54:37;4.70;;;2.05;;
61764;SDS011;50188;48.114;-1.388;2022-09-24T12:57:03;5.80;;;1.70;;
61764;SDS011;50188;48.114;-1.388;2022-09-24T12:59:52;6.65;;;2.22;;
61764;SDS011;50188;48.114;-1.388;2022-09-24T13:02:20;3.35;;;1.48;;
61764;SDS011;50188;48.114;-1.388;2022-09-24T13:04:49;1.90;;;1.00;;
61764;SDS011;50188;48.114;-1.388;2022-09-24T13:07:32;3.65;;;1.60;;
61764;SDS011;50188;48.114;-1.388;2022-09-24T13:10:21;3.60;;;1.83;;
61764;SDS011;50188;48.114;-1.388;2022-09-24T13:12:48;4.60;;;1.70;;
61764;SDS011;50188;48.114;-1.388;2022-09-24T13:20:56;2.42;;;1.45;;
61764;SDS011;50188;48.114;-1.388;2022-09-24T13:23:29;3.10;;;1.40;;
61764;SDS011;50188;48.114;-1.388;2022-09-24T13:26:03;3.55;;;2.30;;
61764;SDS011;50188;48.114;-1.388;2022-09-24T13:28:36;2.90;;;1.17;;
61764;SDS011;50188;48.114;-1.388;2022-09-24T13:31:25;3.90;;;1.83;;
61764;SDS011;50188;48.114;-1.388;2022-09-24T13:34:04;5.03;;;1.83;;
61764;SDS011;50188;48.114;-1.388;2022-09-24T13:36:58;3.40;;;1.35;;
61764;SDS011;50188;48.114;-1.388;2022-09-24T13:39:38;9.07;;;2.53;;
61764;SDS011;50188;48.114;-1.388;2022-09-24T13:42:16;3.58;;;1.75;;
61764;SDS011;50188;48.114;-1.388;2022-09-24T13:44:53;3.55;;;1.17;;
61764;SDS011;50188;48.114;-1.388;2022-09-24T13:47:23;6.83;;;1.97;;
61764;SDS011;50188;48.114;-1.388;2022-09-24T13:52:55;4.60;;;1.73;;
61764;SDS011;50188;48.114;-1.388;2022-09-24T13:55:29;3.03;;;1.52;;
61764;SDS011;50188;48.114;-1.388;2022-09-24T13:57:57;4.15;;;1.77;;
61764;SDS011;50188;48.114;-1.388;2022-09-24T14:00:24;3.97;;;1.40;;
61764;SDS011;50188;48.114;-1.388;2022-09-24T14:02:53;4.40;;;1.20;;
61764;SDS011;50188;48.114;-1.388;2022-09-24T14:05:39;4.05;;;1.13;;
61764;SDS011;50188;48.114;-1.388;2022-09-24T14:08:10;3.50;;;1.00;;
61764;SDS011;50188;48.114;-1.388;2022-09-24T14:10:37;2.85;;;1.98;;
61764;SDS011;50188;48.114;-1.388;2022-09-24T14:13:15;5.65;;;1.95;;
61764;SDS011;50188;48.114;-1.388;2022-09-24T14:15:56;3.22;;;1.20;;
61764;SDS011;50188;48.114;-1.388;2022-09-24T14:18:32;4.13;;;1.33;;
61764;SDS011;50188;48.114;-1.388;2022-09-24T14:21:01;2.35;;;1.40;;
61764;SDS011;50188;48.114;-1.388;2022-09-24T14:23:42;3.97;;;1.52;;
61764;SDS011;50188;48.114;-1.388;2022-09-24T14:26:22;8.10;;;1.40;;
61764;SDS011;50188;48.114;-1.388;2022-09-24T14:28:54;4.53;;;1.95;;
61764;SDS011;50188;48.114;-1.388;2022-09-24T14:31:22;4.38;;;1.95;;
61764;SDS011;50188;48.114;-1.388;2022-09-24T14:33:48;1.88;;;1.00;;
61764;SDS011;50188;48.114;-1.388;2022-09-24T14:36:14;4.43;;;1.80;;
61764;SDS011;50188;48.114;-1.388;2022-09-24T14:38:46;4.43;;;1.40;;
61764;SDS011;50188;48.114;-1.388;2022-09-24T14:41:23;2.33;;;1.70;;
61764;SDS011;50188;48.114;-1.388;2022-09-24T14:44:04;6.50;;;2.00;;
61764;SDS011;50188;48.114;-1.388;2022-09-24T14:46:34;5.47;;;1.95;;
61764;SDS011;50188;48.114;-1.388;2022-09-24T14:49:22;4.45;;;1.90;;
61764;SDS011;50188;48.114;-1.388;2022-09-24T14:51:52;4.35;;;1.48;;
61764;SDS011;50188;48.114;-1.388;2022-09-24T14:54:32;3.58;;;1.60;;
61764;SDS011;50188;48.114;-1.388;2022-09-24T14:57:23;5.72;;;2.08;;
61764;SDS011;50188;48.114;-1.388;2022-09-24T14:59:49;3.83;;;1.63;;
61764;SDS011;50188;48.114;-1.388;2022-09-24T15:02:30;5.28;;;1.75;;
61764;SDS011;50188;48.114;-1.388;2022-09-24T15:05:02;3.05;;;1.48;;
61764;SDS011;50188;48.114;-1.388;2022-09-24T15:07:31;6.78;;;2.75;;
61764;SDS011;50188;48.114;-1.388;2022-09-24T15:09:58;4.70;;;2.22;;
61764;SDS011;50188;48.114;-1.388;2022-09-24T15:12:27;5.38;;;1.80;;
61764;SDS011;50188;48.114;-1.388;2022-09-24T15:14:57;4.18;;;1.92;;
61764;SDS011;50188;48.114;-1.388;2022-09-24T15:17:29;3.65;;;2.10;;
61764;SDS011;50188;48.114;-1.388;2022-09-24T15:19:59;2.50;;;1.67;;
61764;SDS011;50188;48.114;-1.388;2022-09-24T15:22:25;4.68;;;2.22;;
61764;SDS011;50188;48.114;-1.388;2022-09-24T15:24:52;2.42;;;2.08;;
61764;SDS011;50188;48.114;-1.388;2022-09-24T15:27:23;3.78;;;2.33;;
61764;SDS011;50188;48.114;-1.388;2022-09-24T15:29:57;5.75;;;2.55;;
61764;SDS011;50188;48.114;-1.388;2022-09-24T15:32:28;4.80;;;2.38;;
61764;SDS011;50188;48.114;-1.388;2022-09-24T15:34:55;2.75;;;1.70;;